createdAt,value
2022-09-15T00:01:11.449Z,99309.19
2022-09-15T00:03:41.225Z,99316.03
2022-09-15T00:06:10.251Z,99308.09
2022-09-15T00:08:38.227Z,99305.59
2022-09-15T00:11:08.631Z,99307.78
2022-09-15T00:13:38.206Z,99307.22
2022-09-15T00:16:07.127Z,99298.97
2022-09-15T00:18:36.252Z,99306.09
2022-09-15T00:21:08.410Z,99307.22
2022-09-15T00:23:37.153Z,99300.13
2022-09-15T00:26:08.898Z,99302.97
2022-09-15T00:28:38.084Z,99296.16
2022-09-15T00:31:08.121Z,99300.81
2022-09-15T00:33:36.575Z,99298.38
2022-09-15T00:36:07.686Z,99296.91
2022-09-15T00:38:37.035Z,99295.47
2022-09-15T00:41:06.364Z,99302.41
2022-09-15T00:43:47.417Z,99309.66
2022-09-15T00:46:16.655Z,99302.63
2022-09-15T00:48:48.444Z,99297.44
2022-09-15T00:51:22.213Z,99296.84
2022-09-15T00:53:51.317Z,99294.09
2022-09-15T00:56:20.650Z,99298.56
2022-09-15T00:58:55.671Z,99289.94
2022-09-15T01:01:27.124Z,99293.91
2022-09-15T01:03:55.658Z,99298.88
2022-09-15T01:06:31.521Z,99304.41
2022-09-15T01:09:07.146Z,99308.25
2022-09-15T01:11:35.323Z,99303.25
2022-09-15T01:14:03.062Z,99297.31
2022-09-15T01:16:40.993Z,99294.28
2022-09-15T01:19:33.588Z,99294.06
2022-09-15T01:22:13.526Z,99293.50
2022-09-15T01:24:46.907Z,99298.09
2022-09-15T01:27:42.085Z,99301.66
2022-09-15T01:30:13.963Z,99310.75
2022-09-15T01:33:06.124Z,99305.34
2022-09-15T01:36:00.922Z,99302.25
2022-09-15T01:38:36.906Z,99294.38
2022-09-15T01:41:12.754Z,99299.31
2022-09-15T01:43:46.716Z,99302.91
2022-09-15T01:46:17.809Z,99304.88
2022-09-15T01:48:49.106Z,99313.09
2022-09-15T01:51:17.890Z,99290.69
2022-09-15T01:53:46.955Z,99301.63
2022-09-15T01:56:14.697Z,99306.03
2022-09-15T01:58:43.111Z,99300.56
2022-09-15T02:01:16.543Z,99294.03
2022-09-15T02:03:50.196Z,99304.16
2022-09-15T02:06:23.494Z,99301.91
2022-09-15T02:08:57.318Z,99299.50
2022-09-15T02:11:28.893Z,99300.28
2022-09-15T02:14:09.632Z,99295.13
2022-09-15T02:16:42.582Z,99299.25
2022-09-15T02:19:17.711Z,99296.81
2022-09-15T02:21:58.121Z,99289.72
2022-09-15T02:24:30.951Z,99293.00
2022-09-15T02:26:59.315Z,99296.53
2022-09-15T02:29:30.320Z,99289.16
2022-09-15T02:32:06.794Z,99289.97
2022-09-15T02:34:41.306Z,99296.00
2022-09-15T02:37:10.637Z,99305.31
2022-09-15T02:39:43.261Z,99305.06
2022-09-15T02:42:11.120Z,99300.16
2022-09-15T02:44:39.121Z,99308.59
2022-09-15T02:47:08.430Z,99315.75
2022-09-15T02:49:36.164Z,99319.03
2022-09-15T02:52:04.436Z,99307.28
2022-09-15T02:54:32.372Z,99315.47
2022-09-15T02:57:00.977Z,99315.22
2022-09-15T02:59:49.472Z,99313.28
2022-09-15T03:02:20.553Z,99308.91
2022-09-15T03:04:48.718Z,99315.47
2022-09-15T03:07:17.131Z,99327.50
2022-09-15T03:09:45.264Z,99325.59
2022-09-15T03:12:13.157Z,99323.69
2022-09-15T03:14:40.871Z,99326.97
2022-09-15T03:17:08.606Z,99326.41
2022-09-15T03:19:37.784Z,99330.25
2022-09-15T03:22:05.517Z,99336.00
2022-09-15T03:24:33.639Z,99342.00
2022-09-15T03:27:01.815Z,99331.91
2022-09-15T03:29:29.659Z,99335.69
2022-09-15T03:31:57.568Z,99345.84
2022-09-15T03:34:25.518Z,99338.44
2022-09-15T03:36:54.754Z,99343.06
2022-09-15T03:39:22.519Z,99334.88
2022-09-15T03:41:50.379Z,99341.72
2022-09-15T03:44:18.173Z,99333.50
2022-09-15T03:46:46.161Z,99342.22
2022-09-15T03:49:13.946Z,99349.09
2022-09-15T03:51:41.750Z,99344.72
2022-09-15T03:54:11.441Z,99354.00
2022-09-15T03:56:39.407Z,99357.81
2022-09-15T03:59:07.634Z,99359.16
2022-09-15T04:01:35.950Z,99369.84
2022-09-15T04:04:04.130Z,99361.91
2022-09-15T04:06:31.990Z,99359.44
2022-09-15T04:09:00.963Z,99366.25
2022-09-15T04:11:30.186Z,99367.63
2022-09-15T04:13:58.148Z,99380.22
2022-09-15T04:16:27.609Z,99371.44
2022-09-15T04:18:56.240Z,99384.31
2022-09-15T04:21:26.690Z,99378.59
2022-09-15T04:23:54.975Z,99372.00
2022-09-15T04:26:25.819Z,99378.31
2022-09-15T04:28:54.906Z,99390.59
2022-09-15T04:31:22.673Z,99389.78
2022-09-15T04:33:54.065Z,99393.88
2022-09-15T04:36:24.128Z,99390.88
2022-09-15T04:39:05.294Z,99376.38
2022-09-15T04:41:34.684Z,99395.00
2022-09-15T04:44:04.359Z,99390.06
2022-09-15T04:46:32.203Z,99398.25
2022-09-15T04:49:00.043Z,99384.84
2022-09-15T04:51:28.266Z,99391.66
2022-09-15T04:53:56.111Z,99390.31
2022-09-15T04:56:25.525Z,99398.81
2022-09-15T04:58:56.482Z,99399.91
2022-09-15T05:01:30.644Z,99413.00
2022-09-15T05:03:58.883Z,99403.44
2022-09-15T05:06:28.487Z,99406.97
2022-09-15T05:08:58.415Z,99406.16
2022-09-15T05:11:27.104Z,99412.19
2022-09-15T05:13:55.424Z,99412.72
2022-09-15T05:16:25.500Z,99417.94
2022-09-15T05:18:56.683Z,99416.56
2022-09-15T05:21:25.795Z,99413.81
2022-09-15T05:23:53.946Z,99426.13
2022-09-15T05:26:24.146Z,99422.31
2022-09-15T05:28:52.703Z,99428.59
2022-09-15T05:31:24.296Z,99432.13
2022-09-15T05:33:54.285Z,99430.25
2022-09-15T05:36:25.069Z,99448.00
2022-09-15T05:38:53.863Z,99440.88
2022-09-15T05:41:21.949Z,99447.22
2022-09-15T05:43:52.228Z,99449.66
2022-09-15T05:46:20.724Z,99454.84
2022-09-15T05:48:48.536Z,99460.63
2022-09-15T05:51:17.736Z,99458.97
2022-09-15T05:53:45.660Z,99461.94
2022-09-15T05:56:15.732Z,99461.44
2022-09-15T05:58:45.240Z,99468.25
2022-09-15T06:01:15.588Z,99472.06
2022-09-15T06:03:46.363Z,99475.63
2022-09-15T06:06:14.476Z,99462.22
2022-09-15T06:08:47.073Z,99487.41
2022-09-15T06:11:17.890Z,99482.75
2022-09-15T06:13:46.467Z,99485.28
2022-09-15T06:16:18.177Z,99491.56
2022-09-15T06:18:46.943Z,99477.28
2022-09-15T06:21:16.862Z,99490.78
2022-09-15T06:23:50.632Z,99486.66
2022-09-15T06:26:20.567Z,99487.75
2022-09-15T06:28:50.517Z,99492.97
2022-09-15T06:31:18.873Z,99494.59
2022-09-15T06:33:48.948Z,99492.69
2022-09-15T06:36:17.053Z,99504.22
2022-09-15T06:38:47.776Z,99508.31
2022-09-15T06:41:16.708Z,99504.50
2022-09-15T06:43:44.943Z,99513.53
2022-09-15T06:46:14.757Z,99512.69
2022-09-15T06:48:45.238Z,99509.13
2022-09-15T06:51:17.451Z,99513.53
2022-09-15T06:53:47.143Z,99517.91
2022-09-15T06:56:16.666Z,99512.44
2022-09-15T06:58:45.724Z,99519.28
2022-09-15T07:01:15.159Z,99525.03
2022-09-15T07:03:44.731Z,99522.28
2022-09-15T07:06:13.426Z,99517.38
2022-09-15T07:08:41.754Z,99530.78
2022-09-15T07:11:11.791Z,99527.78
2022-09-15T07:13:39.772Z,99533.78
2022-09-15T07:16:10.845Z,99533.78
2022-09-15T07:18:43.277Z,99532.41
2022-09-15T07:21:13.798Z,99543.94
2022-09-15T07:23:41.837Z,99529.13
2022-09-15T07:26:12.915Z,99536.00
2022-09-15T07:28:42.548Z,99542.56
2022-09-15T07:31:13.373Z,99554.88
2022-09-15T07:33:41.301Z,99556.56
2022-09-15T07:36:10.740Z,99549.38
2022-09-15T07:38:41.666Z,99554.06
2022-09-15T07:41:13.085Z,99560.06
2022-09-15T07:43:41.686Z,99549.16
2022-09-15T07:46:17.176Z,99555.38
2022-09-15T07:48:46.649Z,99554.81
2022-09-15T07:51:17.582Z,99562.75
2022-09-15T07:53:49.770Z,99566.84
2022-09-15T07:56:19.479Z,99565.19
2022-09-15T07:58:47.980Z,99551.44
2022-09-15T08:01:17.786Z,99559.16
2022-09-15T08:03:48.762Z,99568.72
2022-09-15T08:06:18.691Z,99577.41
2022-09-15T08:08:47.071Z,99584.53
2022-09-15T08:11:19.013Z,99587.00
2022-09-15T08:13:49.469Z,99586.16
2022-09-15T08:16:20.004Z,99584.50
2022-09-15T08:18:48.436Z,99593.09
2022-09-15T08:21:20.052Z,99591.13
2022-09-15T08:23:51.734Z,99607.31
2022-09-15T08:26:20.146Z,99605.41
2022-09-15T08:28:49.552Z,99607.63
2022-09-15T08:31:18.028Z,99606.44
2022-09-15T08:33:49.637Z,99609.94
2022-09-15T08:36:17.504Z,99612.06
2022-09-15T08:38:46.286Z,99615.34
2022-09-15T08:41:18.276Z,99618.09
2022-09-15T08:43:51.826Z,99616.72
2022-09-15T08:46:23.635Z,99627.59
2022-09-15T08:49:02.058Z,99637.09
2022-09-15T08:51:36.930Z,99634.44
2022-09-15T08:54:11.867Z,99626.69
2022-09-15T08:56:41.979Z,99632.25
2022-09-15T08:59:14.449Z,99628.19
2022-09-15T09:02:09.272Z,99627.84
2022-09-15T09:04:49.516Z,99624.34
2022-09-15T09:07:35.206Z,99629.31
2022-09-15T09:10:13.959Z,99619.72
2022-09-15T09:12:56.530Z,99627.22
2022-09-15T09:15:37.210Z,99623.63
2022-09-15T09:18:30.421Z,99627.78
2022-09-15T09:21:05.249Z,99627.88
2022-09-15T09:23:39.105Z,99628.38
2022-09-15T09:26:10.620Z,99630.66
2022-09-15T09:28:43.287Z,99640.59
2022-09-15T09:31:18.658Z,99626.03
2022-09-15T09:33:52.727Z,99629.44
2022-09-15T09:36:21.212Z,99623.13
2022-09-15T09:38:50.912Z,99629.22
2022-09-15T09:41:25.963Z,99627.31
2022-09-15T09:43:56.939Z,99623.28
2022-09-15T09:46:26.436Z,99632.75
2022-09-15T09:48:59.649Z,99636.66
2022-09-15T09:51:36.637Z,99633.06
2022-09-15T09:54:16.077Z,99630.50
2022-09-15T09:56:44.799Z,99634.41
2022-09-15T09:59:35.252Z,99640.94
2022-09-15T10:02:15.631Z,99647.34
2022-09-15T10:04:45.185Z,99638.56
2022-09-15T10:07:14.586Z,99636.41
2022-09-15T10:09:52.471Z,99633.81
2022-09-15T10:12:27.971Z,99632.69
2022-09-15T10:14:58.351Z,99639.50
2022-09-15T10:17:39.021Z,99628.19
2022-09-15T10:20:21.342Z,99626.34
2022-09-15T10:22:49.616Z,99620.97
2022-09-15T10:25:49.658Z,99611.38
2022-09-15T10:28:24.108Z,99620.50
2022-09-15T10:31:04.693Z,99621.34
2022-09-15T10:33:35.989Z,99622.56
2022-09-15T10:36:07.219Z,99616.31
2022-09-15T10:38:46.856Z,99617.53
2022-09-15T10:41:27.159Z,99623.50
2022-09-15T10:44:10.790Z,99626.09
2022-09-15T10:46:49.578Z,99614.53
2022-09-15T10:49:34.587Z,99623.94
2022-09-15T10:52:14.257Z,99620.47
2022-09-15T10:55:04.021Z,99611.41
2022-09-15T10:57:46.466Z,99621.13
2022-09-15T11:00:20.874Z,99618.28
2022-09-15T11:03:25.427Z,99620.22
2022-09-15T11:06:05.030Z,99616.13
2022-09-15T11:08:49.955Z,99622.06
2022-09-15T11:11:26.392Z,99616.63
2022-09-15T11:14:07.383Z,99618.97
2022-09-15T11:16:49.493Z,99619.81
2022-09-15T11:19:32.300Z,99628.25
2022-09-15T11:22:04.614Z,99639.41
2022-09-15T11:24:41.762Z,99650.50
2022-09-15T11:27:17.485Z,99639.78
2022-09-15T11:30:01.230Z,99642.94
2022-09-15T11:32:33.735Z,99635.69
2022-09-15T11:35:15.691Z,99650.56
2022-09-15T11:37:49.598Z,99665.38
2022-09-15T11:40:25.716Z,99664.31
2022-09-15T11:42:58.484Z,99660.63
2022-09-15T11:45:29.994Z,99665.03
2022-09-15T11:48:06.181Z,99660.75
2022-09-15T11:50:38.618Z,99669.72
2022-09-15T11:53:17.631Z,99657.59
2022-09-15T11:55:52.786Z,99646.78
2022-09-15T12:00:55.502Z,99644.91
2022-09-15T12:03:30.328Z,99648.25
2022-09-15T12:06:02.254Z,99642.13
2022-09-15T12:08:37.922Z,99640.75
2022-09-15T12:11:10.375Z,99646.13
2022-09-15T12:13:38.665Z,99648.28
2022-09-15T12:16:07.232Z,99657.72
2022-09-15T12:18:44.838Z,99647.09
2022-09-15T12:21:22.790Z,99641.31
2022-09-15T12:23:58.220Z,99650.38
2022-09-15T12:26:28.870Z,99636.06
2022-09-15T12:28:59.076Z,99648.72
2022-09-15T12:31:36.440Z,99624.28
2022-09-15T12:34:07.135Z,99633.97
2022-09-15T12:36:42.002Z,99648.19
2022-09-15T12:39:37.448Z,99639.13
2022-09-15T12:42:11.928Z,99644.16
2022-09-15T12:44:44.525Z,99646.50
2022-09-15T12:47:23.561Z,99657.88
2022-09-15T12:49:53.867Z,99667.72
2022-09-15T12:52:24.906Z,99660.47
2022-09-15T12:54:57.514Z,99679.66
2022-09-15T12:57:29.755Z,99671.25
2022-09-15T13:00:42.397Z,99678.44
2022-09-15T13:03:30.051Z,99675.25
2022-09-15T13:06:15.786Z,99683.88
2022-09-15T13:08:47.028Z,99684.97
2022-09-15T13:11:21.395Z,99677.25
2022-09-15T13:13:53.600Z,99670.91
2022-09-15T13:16:29.278Z,99677.72
2022-09-15T13:19:09.592Z,99664.34
2022-09-15T13:21:41.079Z,99676.91
2022-09-15T13:24:18.531Z,99672.38
2022-09-15T13:26:52.579Z,99683.28
2022-09-15T13:29:22.080Z,99677.75
2022-09-15T13:31:56.234Z,99664.28
2022-09-15T13:35:15.517Z,99680.19
2022-09-15T13:41:16.421Z,99661.97
2022-09-15T13:44:17.838Z,99665.66
2022-09-15T13:46:57.557Z,99658.25
2022-09-15T13:49:48.818Z,99669.50
2022-09-15T13:52:33.171Z,99669.25
2022-09-15T13:55:27.921Z,99666.53
2022-09-15T14:00:55.142Z,99664.59
2022-09-15T14:03:28.076Z,99652.38
2022-09-15T14:05:57.613Z,99649.47
2022-09-15T14:08:27.986Z,99666.13
2022-09-15T14:10:59.442Z,99664.63
2022-09-15T14:13:29.297Z,99659.16
2022-09-15T14:16:00.584Z,99668.50
2022-09-15T14:18:28.885Z,99659.38
2022-09-15T14:21:04.967Z,99656.66
2022-09-15T14:23:33.605Z,99656.88
2022-09-15T14:26:03.128Z,99646.94
2022-09-15T14:28:33.082Z,99650.88
2022-09-15T14:31:03.420Z,99639.00
2022-09-15T14:33:38.070Z,99645.03
2022-09-15T14:36:14.608Z,99653.88
2022-09-15T14:38:42.533Z,99653.31
2022-09-15T14:41:20.340Z,99655.00
2022-09-15T14:43:48.031Z,99656.31
2022-09-15T14:46:20.672Z,99647.22
2022-09-15T14:48:48.493Z,99641.63
2022-09-15T14:51:22.439Z,99647.81
2022-09-15T14:53:52.769Z,99646.19
2022-09-15T14:56:24.953Z,99635.59
2022-09-15T14:58:57.072Z,99641.09
2022-09-15T15:01:33.448Z,99636.88
2022-09-15T15:04:09.799Z,99626.16
2022-09-15T15:06:42.760Z,99627.25
2022-09-15T15:09:17.403Z,99625.59
2022-09-15T15:11:45.658Z,99633.09
2022-09-15T15:14:15.731Z,99636.31
2022-09-15T15:16:53.624Z,99629.59
2022-09-15T15:19:33.073Z,99629.84
2022-09-15T15:22:08.419Z,99639.75
2022-09-15T15:24:42.035Z,99637.91
2022-09-15T15:27:41.420Z,99645.31
2022-09-15T15:30:44.659Z,99652.41
2022-09-15T15:33:20.875Z,99643.69
2022-09-15T15:36:02.324Z,99638.09
2022-09-15T15:38:33.948Z,99642.97
2022-09-15T15:41:03.794Z,99648.56
2022-09-15T15:43:31.769Z,99656.06
2022-09-15T15:46:01.823Z,99646.84
2022-09-15T15:48:37.879Z,99657.38
2022-09-15T15:51:07.555Z,99651.91
2022-09-15T15:53:35.557Z,99656.84
2022-09-15T15:56:04.114Z,99658.44
2022-09-15T15:58:34.001Z,99676.19
2022-09-15T16:01:01.833Z,99671.47
2022-09-15T16:03:33.332Z,99675.00
2022-09-15T16:06:02.922Z,99673.56
2022-09-15T16:08:34.036Z,99686.03
2022-09-15T16:11:03.611Z,99688.06
2022-09-15T16:13:31.803Z,99678.81
2022-09-15T16:16:01.544Z,99684.66
2022-09-15T16:18:31.331Z,99675.00
2022-09-15T16:20:59.153Z,99669.63
2022-09-15T16:23:26.903Z,99677.44
2022-09-15T16:25:59.445Z,99663.56
2022-09-15T16:28:28.590Z,99672.31
2022-09-15T16:31:01.393Z,99680.63
2022-09-15T16:33:29.374Z,99684.03
2022-09-15T16:36:06.650Z,99686.91
2022-09-15T16:38:35.974Z,99693.94
2022-09-15T16:41:04.665Z,99698.06
2022-09-15T16:43:32.668Z,99696.91
2022-09-15T16:46:00.363Z,99697.22
2022-09-15T16:48:28.282Z,99692.78
2022-09-15T16:51:17.258Z,99697.72
2022-09-15T16:53:47.282Z,99693.31
2022-09-15T16:56:16.228Z,99676.84
2022-09-15T16:58:45.433Z,99685.69
2022-09-15T17:01:18.496Z,99687.94
2022-09-15T17:03:49.543Z,99688.50
2022-09-15T17:06:18.716Z,99689.06
2022-09-15T17:08:50.521Z,99700.66
2022-09-15T17:11:22.088Z,99685.84
2022-09-15T17:13:50.061Z,99692.47
2022-09-15T17:16:20.270Z,99694.06
2022-09-15T17:18:48.446Z,99692.22
2022-09-15T17:21:18.202Z,99699.66
2022-09-15T17:23:51.053Z,99694.47
2022-09-15T17:26:21.414Z,99695.53
2022-09-15T17:28:50.416Z,99700.25
2022-09-15T17:31:20.786Z,99692.91
2022-09-15T17:33:49.958Z,99694.59
2022-09-15T17:36:18.305Z,99698.38
2022-09-15T17:38:48.655Z,99681.69
2022-09-15T17:41:19.722Z,99700.03
2022-09-15T17:43:47.958Z,99703.09
2022-09-15T17:46:16.443Z,99703.06
2022-09-15T17:48:44.998Z,99709.69
2022-09-15T17:51:16.381Z,99704.16
2022-09-15T17:53:45.171Z,99714.63
2022-09-15T17:56:13.077Z,99701.75
2022-09-15T17:58:46.423Z,99710.81
2022-09-15T18:01:15.709Z,99713.59
2022-09-15T18:03:45.699Z,99725.69
2022-09-15T18:06:14.067Z,99727.38
2022-09-15T18:08:42.437Z,99738.63
2022-09-15T18:11:15.427Z,99734.53
2022-09-15T18:13:44.738Z,99732.31
2022-09-15T18:16:14.401Z,99731.72
2022-09-15T18:18:42.953Z,99743.00
2022-09-15T18:21:23.454Z,99744.66
2022-09-15T18:23:51.275Z,99741.38
2022-09-15T18:26:23.881Z,99753.19
2022-09-15T18:28:56.007Z,99751.00
2022-09-15T18:31:23.929Z,99751.59
2022-09-15T18:33:51.948Z,99758.16
2022-09-15T18:36:20.587Z,99769.66
2022-09-15T18:38:48.454Z,99778.84
2022-09-15T18:41:16.236Z,99775.28
2022-09-15T18:43:48.784Z,99784.31
2022-09-15T18:46:18.467Z,99805.13
2022-09-15T18:48:46.525Z,99805.13
2022-09-15T18:51:23.734Z,99808.72
2022-09-15T18:53:54.474Z,99820.50
2022-09-15T18:56:22.455Z,99825.09
2022-09-15T18:58:53.441Z,99814.03
2022-09-15T19:01:22.814Z,99821.59
2022-09-15T19:03:50.737Z,99824.84
2022-09-15T19:06:18.469Z,99815.28
2022-09-15T19:08:46.364Z,99812.53
2022-09-15T19:11:14.159Z,99805.44
2022-09-15T19:13:41.965Z,99798.88
2022-09-15T19:16:10.367Z,99804.09
2022-09-15T19:18:39.490Z,99802.50
2022-09-15T19:21:08.850Z,99795.06
2022-09-15T19:23:36.915Z,99804.91
2022-09-15T19:26:05.420Z,99801.59
2022-09-15T19:28:33.752Z,99816.16
2022-09-15T19:31:01.824Z,99818.66
2022-09-15T19:33:29.868Z,99807.78
2022-09-15T19:36:17.295Z,99813.25
2022-09-15T19:38:50.678Z,99821.25
2022-09-15T19:41:18.809Z,99815.78
2022-09-15T19:43:46.674Z,99813.88
2022-09-15T19:46:16.829Z,99817.19
2022-09-15T19:48:49.325Z,99810.34
2022-09-15T19:51:20.174Z,99815.28
2022-09-15T19:53:48.529Z,99818.00
2022-09-15T19:56:18.288Z,99820.50
2022-09-15T19:58:46.420Z,99812.22
2022-09-15T20:01:14.395Z,99813.38
2022-09-15T20:03:42.205Z,99808.44
2022-09-15T20:06:11.775Z,99815.84
2022-09-15T20:08:44.499Z,99822.66
2022-09-15T20:11:12.381Z,99817.97
2022-09-15T20:13:43.497Z,99822.91
2022-09-15T20:16:27.340Z,99818.53
2022-09-15T20:18:56.478Z,99828.66
2022-09-15T20:21:48.821Z,99824.31
2022-09-15T20:24:15.917Z,99821.56
2022-09-15T20:26:43.730Z,99824.63
2022-09-15T20:29:11.580Z,99830.06
2022-09-15T20:31:39.541Z,99825.91
2022-09-15T20:34:07.373Z,99825.66
2022-09-15T20:36:38.333Z,99824.00
2022-09-15T20:39:10.629Z,99839.59
2022-09-15T20:41:40.702Z,99827.25
2022-09-15T20:44:10.090Z,99840.13
2022-09-15T20:46:46.185Z,99844.47
2022-09-15T20:49:14.086Z,99832.38
2022-09-15T20:51:42.209Z,99826.31
2022-09-15T20:54:11.254Z,99852.97
2022-09-15T20:56:40.366Z,99844.44
2022-09-15T20:59:10.493Z,99841.66
2022-09-15T21:01:39.706Z,99848.19
2022-09-15T21:04:09.354Z,99841.25
2022-09-15T21:06:37.923Z,99844.78
2022-09-15T21:09:06.568Z,99832.63
2022-09-15T21:11:35.165Z,99845.28
2022-09-15T21:14:04.611Z,99845.03
2022-09-15T21:16:33.789Z,99841.50
2022-09-15T21:19:01.971Z,99840.34
2022-09-15T21:21:31.300Z,99841.22
2022-09-15T21:24:03.440Z,99845.88
2022-09-15T21:26:33.158Z,99854.09
2022-09-15T21:29:01.519Z,99850.00
2022-09-15T21:31:33.042Z,99849.22
2022-09-15T21:34:01.329Z,99848.69
2022-09-15T21:36:30.869Z,99849.22
2022-09-15T21:39:00.517Z,99850.03
2022-09-15T21:41:30.193Z,99859.66
2022-09-15T21:43:59.317Z,99864.56
2022-09-15T21:46:30.669Z,99863.72
2022-09-15T21:49:00.141Z,99862.09
2022-09-15T21:51:30.755Z,99854.16
2022-09-15T21:53:59.890Z,99867.03
2022-09-15T21:56:29.654Z,99877.16
2022-09-15T21:58:57.908Z,99871.09
2022-09-15T22:01:27.828Z,99880.13
2022-09-15T22:04:00.093Z,99879.03
2022-09-15T22:06:31.741Z,99867.84
2022-09-15T22:09:00.638Z,99873.50
2022-09-15T22:11:28.952Z,99875.13
2022-09-15T22:13:57.059Z,99867.16
2022-09-15T22:16:26.649Z,99886.91
2022-09-15T22:18:55.346Z,99879.28
2022-09-15T22:21:26.125Z,99879.47
2022-09-15T22:23:55.653Z,99873.47
2022-09-15T22:26:25.666Z,99876.69
2022-09-15T22:28:54.497Z,99873.13
2022-09-15T22:31:23.799Z,99869.03
2022-09-15T22:33:51.614Z,99865.50
2022-09-15T22:36:24.056Z,99872.56
2022-09-15T22:38:56.169Z,99874.28
2022-09-15T22:41:27.218Z,99879.75
2022-09-15T22:43:55.875Z,99875.06
2022-09-15T22:46:24.075Z,99875.63
2022-09-15T22:48:51.912Z,99873.75
2022-09-15T22:51:19.695Z,99872.91
2022-09-15T22:53:47.571Z,99888.56
2022-09-15T22:56:19.786Z,99879.75
2022-09-15T22:58:49.655Z,99885.16
2022-09-15T23:01:19.824Z,99886.22
2022-09-15T23:03:51.224Z,99877.19
2022-09-15T23:06:19.199Z,99882.22
2022-09-15T23:08:52.351Z,99885.50
2022-09-15T23:11:21.709Z,99881.03
2022-09-15T23:13:50.783Z,99879.69
2022-09-15T23:16:18.649Z,99874.22
2022-09-15T23:18:46.889Z,99872.00
2022-09-15T23:21:15.492Z,99883.84
2022-09-15T23:23:46.625Z,99882.91
2022-09-15T23:26:15.019Z,99887.88
2022-09-15T23:28:44.352Z,99888.38
2022-09-15T23:31:13.370Z,99885.44
2022-09-15T23:33:42.930Z,99882.88
2022-09-15T23:36:13.413Z,99897.41
2022-09-15T23:38:43.097Z,99890.56
2022-09-15T23:41:12.536Z,99890.28
2022-09-15T23:43:40.423Z,99888.31
2022-09-15T23:46:09.899Z,99888.03
2022-09-15T23:48:37.757Z,99877.44
2022-09-15T23:51:06.283Z,99885.81
2022-09-15T23:53:34.198Z,99876.78
2022-09-15T23:56:02.578Z,99888.28
2022-09-15T23:58:30.318Z,99880.53
